createdAt,value
2018-11-21T00:01:28.067Z,6.60
2018-11-21T00:03:56.886Z,5.70
2018-11-21T00:06:25.669Z,5.93
2018-11-21T00:08:54.424Z,7.20
2018-11-21T00:11:23.270Z,6.93
2018-11-21T00:13:52.327Z,6.63
2018-11-21T00:16:21.130Z,5.80
2018-11-21T00:18:50.148Z,5.70
2018-11-21T00:21:18.913Z,5.77
2018-11-21T00:23:47.709Z,6.00
2018-11-21T00:26:16.483Z,6.10
2018-11-21T00:28:45.234Z,5.83
2018-11-21T00:31:13.995Z,6.67
2018-11-21T00:33:42.749Z,6.10
2018-11-21T00:36:11.502Z,5.60
2018-11-21T00:38:40.267Z,5.70
2018-11-21T00:41:09.014Z,5.40
2018-11-21T00:43:37.783Z,6.10
2018-11-21T00:46:06.786Z,5.77
2018-11-21T00:48:35.793Z,5.83
2018-11-21T00:51:04.598Z,6.83
2018-11-21T00:53:33.410Z,5.73
2018-11-21T00:56:02.242Z,5.23
2018-11-21T00:58:31.008Z,5.67
2018-11-21T01:00:59.770Z,6.13
2018-11-21T01:03:28.775Z,5.80
2018-11-21T01:05:57.563Z,5.67
2018-11-21T01:08:26.323Z,5.83
2018-11-21T01:10:55.545Z,6.77
2018-11-21T01:13:24.323Z,5.93
2018-11-21T01:15:53.105Z,6.57
2018-11-21T01:18:21.877Z,5.93
2018-11-21T01:20:50.664Z,5.80
2018-11-21T01:23:19.419Z,5.97
2018-11-21T01:25:48.184Z,6.00
2018-11-21T01:28:16.950Z,6.00
2018-11-21T01:30:45.782Z,5.73
2018-11-21T01:33:14.685Z,6.07
2018-11-21T01:35:43.438Z,7.20
2018-11-21T01:38:12.276Z,6.47
2018-11-21T01:40:41.419Z,6.17
2018-11-21T01:43:10.215Z,5.90
2018-11-21T01:45:38.975Z,5.63
2018-11-21T01:48:07.727Z,5.57
2018-11-21T01:50:36.537Z,6.10
2018-11-21T01:53:05.357Z,5.83
2018-11-21T01:55:34.613Z,7.23
2018-11-21T01:58:03.366Z,6.13
2018-11-21T02:00:32.379Z,5.93
2018-11-21T02:03:01.185Z,5.50
2018-11-21T02:05:30.210Z,5.60
2018-11-21T02:07:58.974Z,6.37
2018-11-21T02:10:27.734Z,6.00
2018-11-21T02:12:56.486Z,5.87
2018-11-21T02:15:25.301Z,6.37
2018-11-21T02:17:54.068Z,6.00
2018-11-21T02:20:23.103Z,6.10
2018-11-21T02:22:52.154Z,5.63
2018-11-21T02:25:20.910Z,6.27
2018-11-21T02:27:50.202Z,5.63
2018-11-21T02:30:18.991Z,5.87
2018-11-21T02:32:48.358Z,5.77
2018-11-21T02:35:17.391Z,5.43
2018-11-21T02:37:46.157Z,6.17
2018-11-21T02:40:14.921Z,6.20
2018-11-21T02:42:43.971Z,5.73
2018-11-21T02:45:12.940Z,5.90
2018-11-21T02:47:41.972Z,5.73
2018-11-21T02:50:10.775Z,5.57
2018-11-21T02:52:39.574Z,5.83
2018-11-21T02:55:08.524Z,5.57
2018-11-21T02:57:37.288Z,5.90
2018-11-21T03:00:08.790Z,5.93
2018-11-21T03:02:37.564Z,5.67
2018-11-21T03:05:06.951Z,5.60
2018-11-21T03:07:35.714Z,5.43
2018-11-21T03:10:05.426Z,5.37
2018-11-21T03:12:34.471Z,5.97
2018-11-21T03:15:03.224Z,5.70
2018-11-21T03:17:32.007Z,5.40
2018-11-21T03:20:00.741Z,5.60
2018-11-21T03:22:29.524Z,5.80
2018-11-21T03:24:58.274Z,5.20
2018-11-21T03:27:27.041Z,5.47
2018-11-21T03:29:56.792Z,5.40
2018-11-21T03:32:25.543Z,4.87
2018-11-21T03:34:54.307Z,5.37
2018-11-21T03:37:23.054Z,4.80
2018-11-21T03:39:52.076Z,5.10
2018-11-21T03:42:20.827Z,5.37
2018-11-21T03:44:49.829Z,5.00
2018-11-21T03:47:18.583Z,5.27
2018-11-21T03:49:47.346Z,5.03
2018-11-21T03:52:16.098Z,5.17
2018-11-21T03:54:44.906Z,4.80
2018-11-21T03:57:14.198Z,4.53
2018-11-21T03:59:42.962Z,4.57
2018-11-21T04:02:11.738Z,4.87
2018-11-21T04:04:40.495Z,4.40
2018-11-21T04:07:09.283Z,4.37
2018-11-21T04:09:38.032Z,4.50
2018-11-21T04:12:06.786Z,5.07
2018-11-21T04:14:35.996Z,4.43
2018-11-21T04:17:04.860Z,4.30
2018-11-21T04:19:34.097Z,4.47
2018-11-21T04:22:02.857Z,4.43
2018-11-21T04:24:31.630Z,4.20
2018-11-21T04:27:00.394Z,4.33
2018-11-21T04:29:29.159Z,4.47
2018-11-21T04:31:57.962Z,4.13
2018-11-21T04:34:27.018Z,4.57
2018-11-21T04:36:56.205Z,4.07
2018-11-21T04:39:25.407Z,3.87
2018-11-21T04:41:54.521Z,4.47
2018-11-21T04:44:24.307Z,4.00
2018-11-21T04:46:53.063Z,4.10
2018-11-21T04:49:21.812Z,3.80
2018-11-21T04:51:50.570Z,3.60
2018-11-21T04:54:19.318Z,3.73
2018-11-21T04:56:48.134Z,3.53
2018-11-21T04:59:17.131Z,3.70
2018-11-21T05:01:46.231Z,3.70
2018-11-21T05:04:15.262Z,3.50
2018-11-21T05:06:44.308Z,3.57
2018-11-21T05:09:13.050Z,3.70
2018-11-21T05:11:41.812Z,3.60
2018-11-21T05:14:10.852Z,3.50
2018-11-21T05:16:39.862Z,3.50
2018-11-21T05:19:09.340Z,3.50
2018-11-21T05:21:38.342Z,3.40
2018-11-21T05:24:07.082Z,3.33
2018-11-21T05:26:35.843Z,3.27
2018-11-21T05:29:04.589Z,3.10
2018-11-21T05:31:33.609Z,3.13
2018-11-21T05:34:02.392Z,2.73
2018-11-21T05:36:31.136Z,2.93
2018-11-21T05:39:00.135Z,2.80
2018-11-21T05:41:28.912Z,3.13
2018-11-21T05:43:57.946Z,4.83
2018-11-21T05:46:26.703Z,4.17
2018-11-21T05:48:55.455Z,3.13
2018-11-21T05:51:24.779Z,3.10
2018-11-21T05:53:53.537Z,2.70
2018-11-21T05:56:22.284Z,2.70
2018-11-21T05:58:51.280Z,2.97
2018-11-21T06:01:20.174Z,3.97
2018-11-21T06:03:49.143Z,3.33
2018-11-21T06:06:18.178Z,4.73
2018-11-21T06:08:47.228Z,4.47
2018-11-21T06:11:16.231Z,3.17
2018-11-21T06:13:45.026Z,3.23
2018-11-21T06:16:13.781Z,8.70
2018-11-21T06:18:42.574Z,3.27
2018-11-21T06:21:14.152Z,3.80
2018-11-21T06:23:42.718Z,4.00
2018-11-21T06:26:11.471Z,9.03
2018-11-21T06:28:40.482Z,2.60
2018-11-21T06:31:09.230Z,3.50
2018-11-21T06:33:38.025Z,4.13
2018-11-21T06:36:06.820Z,5.50
2018-11-21T06:38:35.638Z,5.70
2018-11-21T06:41:04.545Z,4.10
2018-11-21T06:43:33.619Z,7.93
2018-11-21T06:46:02.367Z,4.90
2018-11-21T06:48:31.121Z,7.93
2018-11-21T06:50:59.894Z,5.53
2018-11-21T06:53:28.665Z,4.50
2018-11-21T06:55:57.435Z,6.27
2018-11-21T06:58:26.347Z,4.00
2018-11-21T07:00:55.407Z,7.73
2018-11-21T07:03:24.739Z,5.37
2018-11-21T07:05:53.643Z,4.60
2018-11-21T07:08:22.733Z,5.50
2018-11-21T07:10:51.935Z,4.40
2018-11-21T07:13:20.707Z,5.83
2018-11-21T07:15:49.521Z,2.93
2018-11-21T07:18:18.311Z,4.07
2018-11-21T07:20:47.294Z,5.07
2018-11-21T07:23:16.491Z,4.50
2018-11-21T07:25:45.626Z,5.07
2018-11-21T07:28:14.559Z,5.43
2018-11-21T07:30:43.455Z,3.20
2018-11-21T07:33:12.238Z,6.97
2018-11-21T07:35:41.047Z,4.50
2018-11-21T07:38:10.586Z,4.40
2018-11-21T07:40:39.412Z,4.63
2018-11-21T07:43:08.184Z,4.57
2018-11-21T07:45:37.178Z,4.53
2018-11-21T07:48:06.274Z,6.57
2018-11-21T07:50:35.101Z,5.27
2018-11-21T07:53:03.873Z,8.17
2018-11-21T07:55:32.640Z,6.73
2018-11-21T07:58:09.750Z,4.70
2018-11-21T08:01:00.237Z,9.60
2018-11-21T08:03:30.984Z,6.43
2018-11-21T08:06:05.706Z,4.30
2018-11-21T08:08:49.338Z,4.00
2018-11-21T08:11:39.851Z,4.40
2018-11-21T08:14:25.002Z,3.70
2018-11-21T08:17:15.961Z,4.97
2018-11-21T08:20:05.302Z,2.67
2018-11-21T08:22:59.146Z,4.87
2018-11-21T08:25:59.175Z,3.07
2018-11-21T08:28:31.560Z,4.53
2018-11-21T08:31:00.338Z,4.57
2018-11-21T08:33:33.828Z,4.80
2018-11-21T08:35:59.102Z,3.47
2018-11-21T08:38:27.879Z,4.03
2018-11-21T08:40:56.647Z,3.57
2018-11-21T08:43:25.816Z,5.37
2018-11-21T08:45:54.594Z,3.90
2018-11-21T08:48:23.631Z,4.97
2018-11-21T08:50:52.434Z,5.00
2018-11-21T08:53:21.270Z,3.27
2018-11-21T08:55:50.072Z,3.17
2018-11-21T08:58:19.366Z,4.07
2018-11-21T09:00:48.801Z,2.63
2018-11-21T09:03:17.658Z,2.40
2018-11-21T09:05:46.423Z,2.73
2018-11-21T09:08:15.214Z,2.57
2018-11-21T09:10:43.990Z,5.70
2018-11-21T09:13:12.775Z,3.20
2018-11-21T09:15:42.095Z,2.60
2018-11-21T09:18:11.488Z,4.33
2018-11-21T09:20:40.291Z,4.37
2018-11-21T09:23:09.373Z,2.77
2018-11-21T09:25:38.248Z,3.37
2018-11-21T09:28:07.389Z,3.33
2018-11-21T09:30:36.173Z,4.30
2018-11-21T09:33:05.313Z,3.80
2018-11-21T09:35:34.089Z,4.23
2018-11-21T09:38:02.932Z,2.60
2018-11-21T09:40:31.695Z,2.70
2018-11-21T09:43:00.527Z,5.00
2018-11-21T09:45:29.325Z,3.57
2018-11-21T09:47:58.590Z,3.43
2018-11-21T09:50:28.903Z,3.33
2018-11-21T09:52:57.707Z,4.27
2018-11-21T09:55:26.588Z,2.73
2018-11-21T09:57:55.598Z,3.83
2018-11-21T10:01:00.436Z,2.77
2018-11-21T10:03:30.819Z,2.50
2018-11-21T10:06:11.329Z,1.90
2018-11-21T10:08:50.427Z,2.77
2018-11-21T10:11:19.493Z,2.43
2018-11-21T10:13:48.714Z,2.73
2018-11-21T10:16:17.841Z,2.53
2018-11-21T10:18:48.239Z,2.00
2018-11-21T10:21:18.858Z,4.70
2018-11-21T10:23:47.853Z,2.50
2018-11-21T10:26:17.384Z,2.53
2018-11-21T10:28:47.078Z,3.03
2018-11-21T10:31:15.903Z,3.03
2018-11-21T10:33:44.830Z,2.33
2018-11-21T10:36:13.711Z,2.20
2018-11-21T10:38:42.799Z,2.23
2018-11-21T10:41:11.793Z,2.40
2018-11-21T10:43:40.603Z,3.33
2018-11-21T10:46:09.429Z,2.47
2018-11-21T10:48:38.293Z,2.63
2018-11-21T10:51:07.339Z,3.43
2018-11-21T10:53:36.371Z,3.30
2018-11-21T10:56:05.871Z,2.60
2018-11-21T10:58:34.719Z,2.40
2018-11-21T11:01:21.498Z,2.50
2018-11-21T11:03:53.052Z,2.77
2018-11-21T11:06:39.807Z,2.33
2018-11-21T11:09:38.384Z,3.03
2018-11-21T11:12:32.366Z,2.40
2018-11-21T11:15:18.805Z,2.60
2018-11-21T11:18:05.725Z,2.23
2018-11-21T11:20:59.477Z,2.17
2018-11-21T11:23:49.746Z,2.30
2018-11-21T11:26:43.827Z,2.20
2018-11-21T11:29:43.726Z,2.33
2018-11-21T11:32:30.353Z,3.00
2018-11-21T11:35:27.931Z,2.50
2018-11-21T11:38:26.734Z,2.40
2018-11-21T11:41:26.562Z,2.33
2018-11-21T11:44:12.949Z,4.33
2018-11-21T11:47:06.933Z,2.10
2018-11-21T11:49:53.398Z,2.40
2018-11-21T11:52:40.425Z,2.17
2018-11-21T11:55:27.007Z,3.83
2018-11-21T11:58:13.801Z,3.07
2018-11-21T12:01:13.671Z,2.43
2018-11-21T12:03:50.241Z,2.33
2018-11-21T12:06:40.920Z,2.80
2018-11-21T12:09:27.930Z,3.77
2018-11-21T12:12:24.803Z,2.07
2018-11-21T12:15:19.219Z,2.30
2018-11-21T12:18:05.986Z,3.40
2018-11-21T12:21:03.681Z,2.40
2018-11-21T12:23:54.765Z,2.30
2018-11-21T12:26:39.759Z,3.70
2018-11-21T12:29:41.807Z,2.40
2018-11-21T12:32:39.266Z,3.23
2018-11-21T12:35:21.690Z,2.10
2018-11-21T12:38:09.970Z,2.53
2018-11-21T12:41:06.819Z,2.27
2018-11-21T12:43:53.724Z,2.33
2018-11-21T12:46:35.712Z,2.53
2018-11-21T12:49:32.996Z,2.77
2018-11-21T12:52:29.766Z,2.47
2018-11-21T12:55:35.661Z,2.70
2018-11-21T12:58:24.657Z,1.90
2018-11-21T13:01:10.695Z,2.30
2018-11-21T13:03:56.911Z,2.10
2018-11-21T13:06:45.100Z,2.10
2018-11-21T13:09:31.405Z,2.57
2018-11-21T13:12:17.809Z,2.40
2018-11-21T13:15:17.693Z,2.17
2018-11-21T13:18:04.242Z,2.23
2018-11-21T13:21:00.694Z,2.40
2018-11-21T13:23:44.290Z,2.30
2018-11-21T13:26:30.922Z,2.13
2018-11-21T13:29:21.827Z,2.30
2018-11-21T13:32:12.618Z,2.40
2018-11-21T13:34:57.605Z,6.30
2018-11-21T13:37:44.694Z,2.53
2018-11-21T13:40:31.323Z,5.27
2018-11-21T13:43:31.123Z,2.17
2018-11-21T13:46:17.685Z,3.07
2018-11-21T13:48:55.646Z,2.40
2018-11-21T13:51:34.647Z,3.70
2018-11-21T13:54:20.801Z,2.50
2018-11-21T13:56:50.353Z,2.50
2018-11-21T13:59:19.112Z,2.83
2018-11-21T14:01:48.179Z,2.50
2018-11-21T14:04:17.160Z,3.17
2018-11-21T14:06:45.929Z,2.40
2018-11-21T14:09:19.347Z,4.33
2018-11-21T14:11:48.817Z,2.77
2018-11-21T14:14:17.756Z,2.40
2018-11-21T14:16:46.552Z,3.13
2018-11-21T14:19:15.414Z,3.40
2018-11-21T14:21:44.317Z,3.43
2018-11-21T14:24:13.395Z,4.03
2018-11-21T14:26:42.200Z,4.30
2018-11-21T14:29:11.038Z,4.97
2018-11-21T14:31:39.871Z,3.67
2018-11-21T14:34:08.730Z,2.77
2018-11-21T14:36:37.686Z,2.70
2018-11-21T14:39:09.538Z,2.80
2018-11-21T14:41:39.078Z,5.17
2018-11-21T14:44:08.211Z,4.67
2018-11-21T14:46:37.067Z,2.83
2018-11-21T14:49:06.445Z,2.60
2018-11-21T14:51:35.554Z,6.73
2018-11-21T14:54:04.704Z,2.67
2018-11-21T14:56:33.481Z,2.97
2018-11-21T14:59:02.348Z,3.40
2018-11-21T15:01:31.135Z,2.63
2018-11-21T15:03:59.923Z,3.00
2018-11-21T15:06:28.761Z,2.63
2018-11-21T15:08:57.546Z,2.37
2018-11-21T15:11:26.347Z,2.67
2018-11-21T15:13:55.429Z,3.43
2018-11-21T15:16:24.456Z,2.60
2018-11-21T15:18:53.279Z,3.00
2018-11-21T15:21:22.072Z,3.50
2018-11-21T15:23:50.876Z,2.43
2018-11-21T15:26:19.686Z,3.10
2018-11-21T15:28:48.788Z,2.90
2018-11-21T15:31:17.680Z,2.57
2018-11-21T15:33:46.494Z,2.70
2018-11-21T15:36:15.313Z,2.97
2018-11-21T15:38:44.539Z,2.70
2018-11-21T15:41:13.386Z,2.93
2018-11-21T15:43:42.167Z,2.50
2018-11-21T15:46:10.937Z,4.37
2018-11-21T15:48:39.742Z,4.87
2018-11-21T15:51:08.646Z,2.57
2018-11-21T15:53:37.678Z,2.57
2018-11-21T15:56:06.465Z,3.63
2018-11-21T15:58:35.299Z,2.93
